Time;durP1;ratioP1;P1;durP2;ratioP2;P2;SDS_P1;SDS_P2;PMS_P1;PMS_P2;Temp;Humidity;BMP_temperature;BMP_pressure;BME280_temperature;BME280_humidity;BME280_pressure;Samples;Min_cycle;Max_cycle;Signal;HPM_P1;HPM_P2
2023/05/05 00:02:11;;;;;;;7.78;5.90;;;;;16.40;101009.00;;;;9875169;29;20239;-79
2023/05/05 00:07:12;;;;;;;4.90;4.40;;;;;16.30;101017.00;;;;9858518;29;20219;-78
2023/05/05 00:12:13;;;;;;;3.72;3.38;;;;;16.20;101016.00;;;;9853038;29;20226;-79
2023/05/05 00:17:15;;;;;;;4.72;2.80;;;;;16.00;101018.00;;;;9853385;29;20268;-79
2023/05/05 00:22:18;;;;;;;3.53;2.63;;;;;15.80;101006.00;;;;9866599;29;20267;-79
2023/05/05 00:27:19;;;;;;;5.68;2.63;;;;;15.60;101006.00;;;;9867145;29;20214;-79
2023/05/05 00:32:21;;;;;;;2.73;2.53;;;;;15.30;100996.00;;;;9837683;29;21067;-79
2023/05/05 00:37:22;;;;;;;3.93;2.93;;;;;15.00;100995.00;;;;9839024;29;20230;-80
2023/05/05 00:42:25;;;;;;;3.40;2.60;;;;;14.80;100985.00;;;;9837546;29;20243;-79
2023/05/05 00:47:26;;;;;;;4.07;3.33;;;;;14.60;100995.00;;;;9838686;29;21827;-79
2023/05/05 00:52:28;;;;;;;4.10;3.03;;;;;14.40;101005.00;;;;9852106;29;21732;-80
2023/05/05 00:57:31;;;;;;;5.73;3.20;;;;;14.20;101003.00;;;;9851459;29;20235;-78
2023/05/05 01:02:33;;;;;;;4.20;3.63;;;;;14.00;101002.00;;;;9850925;29;20273;-78
2023/05/05 01:08:00;;;;;;;6.07;4.70;;;;;13.90;101007.00;;;;9837083;29;20238;-78
2023/05/05 01:13:04;;;;;;;8.30;5.40;;;;;13.70;101006.00;;;;9834712;29;20317;-77
2023/05/05 01:18:31;;;;;;;5.97;5.17;;;;;13.60;100999.00;;;;9867616;29;20238;-77
2023/05/05 01:23:51;;;;;;;7.23;6.37;;;;;13.60;101008.00;;;;9851850;29;20239;-77
2023/05/05 01:29:10;;;;;;;8.17;6.27;;;;;13.50;101009.00;;;;9865719;29;20712;-77
2023/05/05 01:34:15;;;;;;;8.33;6.80;;;;;13.40;101017.00;;;;9865344;29;20899;-78
2023/05/05 01:39:18;;;;;;;8.80;7.40;;;;;13.30;101012.00;;;;9835952;29;20219;-78
2023/05/05 01:44:20;;;;;;;15.53;9.73;;;;;13.30;101016.00;;;;9849914;29;20238;-78
2023/05/05 01:49:22;;;;;;;13.50;9.67;;;;;13.20;101022.00;;;;9835593;29;20231;-77
2023/05/05 01:54:25;;;;;;;16.33;11.93;;;;;13.20;101021.00;;;;9848891;29;20385;-77
2023/05/05 01:59:28;;;;;;;15.70;11.60;;;;;13.10;101008.00;;;;9837049;29;20302;-77
2023/05/05 02:04:32;;;;;;;15.23;11.93;;;;;13.00;101017.00;;;;9850991;29;20226;-78
2023/05/05 02:09:35;;;;;;;16.07;11.93;;;;;13.00;101007.00;;;;9853056;29;20238;-78
2023/05/05 02:14:38;;;;;;;14.33;10.27;;;;;13.00;101021.00;;;;9857227;29;21008;-80
2023/05/05 02:19:42;;;;;;;10.57;9.00;;;;;13.10;101027.00;;;;9837817;29;20239;-79
2023/05/05 02:24:44;;;;;;;9.63;8.40;;;;;13.10;101041.00;;;;9849730;29;20238;-77
2023/05/05 02:29:49;;;;;;;8.63;7.23;;;;;13.10;101039.00;;;;9864384;29;20218;-77
2023/05/05 02:34:51;;;;;;;8.17;5.47;;;;;13.10;101040.00;;;;9850510;29;21941;-77
2023/05/05 02:40:00;;;;;;;9.53;5.87;;;;;13.10;101034.00;;;;9850000;29;20242;-79
2023/05/05 02:45:17;;;;;;;8.30;5.33;;;;;13.10;101036.00;;;;9847219;29;21917;-78
2023/05/05 02:50:22;;;;;;;7.90;5.53;;;;;13.00;101042.00;;;;9847198;29;20253;-80
2023/05/05 02:56:15;;;;;;;7.70;6.80;;;;;12.90;101055.00;;;;9865541;29;20319;-79
2023/05/05 03:01:36;;;;;;;8.27;6.30;;;;;12.70;101057.00;;;;9834306;29;20403;-79
2023/05/05 03:06:42;;;;;;;7.83;5.50;;;;;12.50;101067.00;;;;9840897;29;20230;-79
2023/05/05 03:12:01;;;;;;;7.27;5.83;;;;;12.40;101053.00;;;;9818733;29;20274;-79
2023/05/05 03:17:05;;;;;;;5.73;5.10;;;;;12.30;101063.00;;;;9832509;29;20226;-79
2023/05/05 03:22:08;;;;;;;6.03;4.33;;;;;12.40;101066.00;;;;9834539;29;21945;-79
2023/05/05 03:27:12;;;;;;;6.57;5.87;;;;;12.40;101074.00;;;;9864031;29;20329;-80
2023/05/05 03:32:14;;;;;;;5.80;5.20;;;;;12.40;101060.00;;;;9863864;29;20284;-79
2023/05/05 03:37:16;;;;;;;6.67;5.50;;;;;12.40;101053.00;;;;9832729;29;20322;-80
2023/05/05 03:42:18;;;;;;;8.50;5.07;;;;;12.40;101058.00;;;;9847543;29;20253;-79
2023/05/05 03:47:19;;;;;;;8.40;5.00;;;;;12.40;101045.00;;;;9849244;29;21760;-79
2023/05/05 03:52:21;;;;;;;5.00;4.50;;;;;12.30;101027.00;;;;9854808;29;20218;-80
2023/05/05 03:57:23;;;;;;;6.87;5.07;;;;;12.30;101024.00;;;;9839914;29;21178;-77
2023/05/05 04:02:24;;;;;;;12.67;5.60;;;;;12.30;101022.00;;;;9838435;29;20245;-80
2023/05/05 04:07:26;;;;;;;5.73;4.87;;;;;12.10;101027.00;;;;9853317;29;20242;-79
2023/05/05 04:12:27;;;;;;;6.60;5.40;;;;;12.00;101029.00;;;;9838550;29;21841;-78
2023/05/05 04:17:30;;;;;;;7.30;5.67;;;;;11.90;101029.00;;;;9852680;29;22029;-78
2023/05/05 04:22:32;;;;;;;7.77;6.97;;;;;11.90;101040.00;;;;9836956;29;20261;-79
2023/05/05 04:27:34;;;;;;;10.03;6.27;;;;;11.70;101055.00;;;;9851165;29;21329;-80
2023/05/05 04:32:36;;;;;;;10.20;7.97;;;;;11.70;101062.00;;;;9850903;29;20230;-79
2023/05/05 04:37:38;;;;;;;14.83;9.13;;;;;11.90;101057.00;;;;9851869;29;20706;-79
2023/05/05 04:42:40;;;;;;;12.87;9.83;;;;;12.10;101060.00;;;;9866537;29;20274;-78
2023/05/05 04:47:42;;;;;;;12.27;10.10;;;;;12.30;101054.00;;;;9851703;29;20239;-79
2023/05/05 04:52:43;;;;;;;12.50;8.57;;;;;12.50;101061.00;;;;9821156;29;22525;-80
2023/05/05 04:57:44;;;;;;;11.63;7.47;;;;;12.50;101075.00;;;;9850674;29;20234;-80
2023/05/05 05:02:46;;;;;;;9.67;8.00;;;;;12.50;101082.00;;;;9835445;29;20242;-79
2023/05/05 05:07:48;;;;;;;15.03;10.50;;;;;12.80;101087.00;;;;9865284;29;20284;-79
2023/05/05 05:12:49;;;;;;;14.30;9.97;;;;;13.30;101105.00;;;;9846853;29;20219;-79
2023/05/05 05:17:51;;;;;;;23.63;11.00;;;;;13.70;101105.00;;;;9851233;29;20279;-80
2023/05/05 05:22:52;;;;;;;12.90;9.30;;;;;13.90;101119.00;;;;9833228;29;20269;-79
2023/05/05 05:27:55;;;;;;;13.70;10.93;;;;;14.40;101118.00;;;;9847146;29;20300;-79
2023/05/05 05:33:03;;;;;;;12.67;10.30;;;;;15.00;101120.00;;;;9847958;29;21893;-80
2023/05/05 05:38:06;;;;;;;15.70;10.43;;;;;15.50;101129.00;;;;9848871;29;20223;-81
2023/05/05 05:43:07;;;;;;;13.27;9.13;;;;;15.80;101138.00;;;;9863812;29;20258;-82
2023/05/05 05:48:10;;;;;;;13.43;8.60;;;;;16.20;101137.00;;;;9831849;29;20221;-80
2023/05/05 05:53:12;;;;;;;12.57;7.70;;;;;16.40;101134.00;;;;9851822;29;20223;-80
2023/05/05 05:58:15;;;;;;;8.55;6.32;;;;;16.60;101138.00;;;;9846670;29;20345;-81
2023/05/05 06:03:17;;;;;;;9.38;7.20;;;;;16.60;101141.00;;;;9832530;29;20238;-80
2023/05/05 06:08:20;;;;;;;10.23;7.28;;;;;16.70;101141.00;;;;9832336;29;20314;-80
2023/05/05 06:13:26;;;;;;;12.48;7.60;;;;;16.80;101151.00;;;;9833233;29;20237;-80
2023/05/05 06:18:28;;;;;;;7.82;6.10;;;;;17.10;101151.00;;;;9861396;29;20230;-81
2023/05/05 06:23:30;;;;;;;10.15;6.72;;;;;17.40;101151.00;;;;9815927;29;20243;-80
2023/05/05 06:28:36;;;;;;;8.20;5.82;;;;;17.20;101146.00;;;;9845920;29;20222;-80
2023/05/05 06:33:37;;;;;;;8.73;5.93;;;;;17.20;101143.00;;;;9823105;29;20226;-79
2023/05/05 06:38:39;;;;;;;8.25;5.70;;;;;17.50;101147.00;;;;9861706;29;21274;-79
2023/05/05 06:43:41;;;;;;;14.32;5.90;;;;;18.30;101137.00;;;;9859629;29;20250;-79
2023/05/05 06:48:46;;;;;;;9.80;5.28;;;;;18.80;101132.00;;;;9843718;29;20238;-79
2023/05/05 06:53:47;;;;;;;8.18;5.38;;;;;19.30;101136.00;;;;9855958;29;20977;-79
2023/05/05 06:58:49;;;;;;;11.63;5.25;;;;;19.70;101123.00;;;;9839224;29;20219;-78
2023/05/05 07:03:51;;;;;;;6.90;5.07;;;;;20.00;101129.00;;;;9823806;29;20295;-78
2023/05/05 07:08:52;;;;;;;6.63;3.75;;;;;20.70;101131.00;;;;9834263;29;20226;-79
2023/05/05 07:13:53;;;;;;;4.55;3.83;;;;;21.30;101132.00;;;;9853254;29;20223;-79
2023/05/05 07:18:54;;;;;;;6.95;4.00;;;;;22.00;101117.00;;;;9852980;29;20226;-78
2023/05/05 07:23:56;;;;;;;7.68;4.45;;;;;22.40;101121.00;;;;9847995;29;20238;-79
2023/05/05 07:28:57;;;;;;;6.25;2.80;;;;;22.20;101133.00;;;;9851636;29;21258;-80
2023/05/05 07:33:58;;;;;;;3.63;2.60;;;;;22.10;101141.00;;;;9861915;29;20822;-78
2023/05/05 07:39:00;;;;;;;4.78;2.80;;;;;22.10;101147.00;;;;9847770;29;20223;-79
2023/05/05 07:44:02;;;;;;;7.43;2.70;;;;;21.90;101156.00;;;;9834031;29;20269;-80
2023/05/05 07:49:03;;;;;;;4.35;2.60;;;;;21.20;101164.00;;;;9865100;29;21821;-79
2023/05/05 07:54:05;;;;;;;4.35;2.83;;;;;20.80;101162.00;;;;9834648;29;20226;-78
2023/05/05 07:59:06;;;;;;;9.15;3.90;;;;;20.80;101161.00;;;;9845990;29;20227;-79
2023/05/05 08:04:07;;;;;;;6.38;3.55;;;;;20.70;101156.00;;;;9862487;29;20243;-79
2023/05/05 08:09:09;;;;;;;5.35;3.42;;;;;20.20;101164.00;;;;9849370;29;21089;-79
2023/05/05 08:14:10;;;;;;;9.07;4.20;;;;;20.10;101152.00;;;;9864359;29;20264;-79
2023/05/05 08:19:11;;;;;;;8.32;4.28;;;;;20.10;101145.00;;;;9849896;29;20342;-80
2023/05/05 08:24:29;;;;;;;7.95;4.38;;;;;20.20;101144.00;;;;9864866;29;20253;-79
2023/05/05 08:29:31;;;;;;;6.40;4.20;;;;;20.70;101147.00;;;;9863986;29;20775;-79
2023/05/05 08:34:32;;;;;;;7.47;4.53;;;;;21.60;101143.00;;;;9830303;29;20314;-81
2023/05/05 08:39:33;;;;;;;5.13;3.72;;;;;21.70;101140.00;;;;9859969;29;20330;-79
2023/05/05 08:44:34;;;;;;;6.10;3.75;;;;;21.20;101137.00;;;;9901125;29;20230;-80
2023/05/05 08:49:45;;;;;;;4.72;3.15;;;;;20.30;101157.00;;;;9869008;29;20729;-79
2023/05/05 08:55:00;;;;;;;4.57;3.45;;;;;19.20;101153.00;;;;9834376;29;20440;-78
2023/05/05 09:00:02;;;;;;;5.88;2.92;;;;;18.60;101145.00;;;;9863502;29;20261;-80
2023/05/05 09:05:05;;;;;;;5.05;3.60;;;;;18.70;101146.00;;;;9833216;29;20262;-77
2023/05/05 09:10:08;;;;;;;5.60;3.50;;;;;19.00;101162.00;;;;9859987;29;20223;-78
2023/05/05 09:15:11;;;;;;;5.85;2.88;;;;;19.60;101156.00;;;;9850985;29;20286;-79
2023/05/05 09:20:13;;;;;;;3.78;3.25;;;;;20.50;101150.00;;;;9852771;29;20246;-78
2023/05/05 09:25:17;;;;;;;6.97;4.38;;;;;20.90;101159.00;;;;9853405;29;20636;-78
2023/05/05 09:30:25;;;;;;;7.57;4.47;;;;;21.20;101169.00;;;;9869498;29;20227;-78
2023/05/05 09:35:27;;;;;;;6.93;4.93;;;;;21.50;101165.00;;;;9849546;29;20464;-77
2023/05/05 09:40:45;;;;;;;7.45;5.60;;;;;21.50;101164.00;;;;9832270;29;20242;-78
2023/05/05 09:45:47;;;;;;;9.45;6.40;;;;;21.50;101164.00;;;;9850678;29;20218;-78
2023/05/05 09:50:49;;;;;;;7.80;5.25;;;;;22.40;101162.00;;;;9832368;29;21060;-78
2023/05/05 09:55:57;;;;;;;8.38;5.78;;;;;22.50;101161.00;;;;9849940;29;20275;-78
2023/05/05 10:00:59;;;;;;;9.73;5.60;;;;;23.00;101155.00;;;;9849612;29;20609;-78
2023/05/05 10:06:01;;;;;;;11.63;5.70;;;;;23.50;101152.00;;;;9834231;29;21784;-79
2023/05/05 10:11:05;;;;;;;7.30;4.50;;;;;24.30;101152.00;;;;9846744;29;20226;-78
2023/05/05 10:16:08;;;;;;;12.55;4.10;;;;;24.80;101156.00;;;;9848110;29;20276;-78
2023/05/05 10:21:12;;;;;;;5.50;3.50;;;;;25.60;101146.00;;;;9862507;29;20274;-77
2023/05/05 10:26:15;;;;;;;9.43;3.05;;;;;25.80;101135.00;;;;9854859;29;20234;-77
2023/05/05 10:31:23;;;;;;;7.28;3.20;;;;;26.00;101132.00;;;;9847847;29;20223;-78
2023/05/05 10:36:28;;;;;;;5.60;2.78;;;;;26.50;101137.00;;;;9847617;29;21075;-78
2023/05/05 10:41:31;;;;;;;4.82;2.08;;;;;26.50;101126.00;;;;9865763;29;21980;-78
2023/05/05 10:46:33;;;;;;;6.50;1.92;;;;;25.50;101139.00;;;;9834741;29;20231;-78
2023/05/05 10:52:12;;;;;;;5.55;1.95;;;;;24.10;101144.00;;;;9848207;29;20242;-78
2023/05/05 10:57:17;;;;;;;10.98;2.30;;;;;23.20;101133.00;;;;9864086;29;20354;-78
2023/05/05 11:02:23;;;;;;;10.00;2.72;;;;;22.80;101128.00;;;;9848207;29;20278;-79
2023/05/05 11:07:26;;;;;;;7.18;2.70;;;;;22.10;101112.00;;;;9849141;29;20231;-77
2023/05/05 11:12:29;;;;;;;6.57;3.95;;;;;21.50;101124.00;;;;9833992;29;20234;-79
2023/05/05 11:17:47;;;;;;;5.68;4.40;;;;;21.40;101120.00;;;;9844871;29;20341;-78
2023/05/05 11:23:01;;;;;;;13.02;5.43;;;;;21.00;101128.00;;;;9817596;29;20529;-80
2023/05/05 11:28:17;;;;;;;8.38;5.82;;;;;21.10;101114.00;;;;9848137;29;20227;-77
2023/05/05 11:33:32;;;;;;;9.65;5.85;;;;;21.90;101125.00;;;;9848282;29;20222;-78
2023/05/05 11:38:42;;;;;;;6.63;4.40;;;;;22.80;101122.00;;;;9833109;29;20286;-78
2023/05/05 11:43:43;;;;;;;8.25;4.50;;;;;23.60;101117.00;;;;9862282;29;20238;-78
2023/05/05 11:48:46;;;;;;;7.70;4.10;;;;;24.30;101114.00;;;;9860618;29;20238;-79
2023/05/05 11:53:48;;;;;;;10.90;4.47;;;;;24.80;101112.00;;;;9845044;29;20234;-79
2023/05/05 11:59:10;;;;;;;7.13;3.65;;;;;25.40;101108.00;;;;9860118;29;20234;-79
2023/05/05 12:04:12;;;;;;;7.43;2.95;;;;;25.50;101103.00;;;;9843074;29;20274;-78
2023/05/05 12:09:19;;;;;;;4.53;2.40;;;;;26.20;101107.00;;;;9832108;29;21537;-79
2023/05/05 12:14:21;;;;;;;5.93;2.38;;;;;25.90;101095.00;;;;9867041;29;20242;-80
2023/05/05 12:19:23;;;;;;;4.60;1.73;;;;;25.70;101091.00;;;;9866111;29;20235;-79
2023/05/05 12:24:24;;;;;;;4.75;1.77;;;;;25.30;101087.00;;;;9850198;29;20446;-80
2023/05/05 12:29:27;;;;;;;2.10;1.42;;;;;26.50;101095.00;;;;9865319;29;20218;-79
2023/05/05 12:34:30;;;;;;;3.90;1.42;;;;;25.00;101096.00;;;;9826956;29;20349;-79
2023/05/05 12:39:37;;;;;;;4.30;1.40;;;;;22.70;101099.00;;;;9835038;29;20223;-80
2023/05/05 12:44:39;;;;;;;5.43;2.17;;;;;21.50;101093.00;;;;9830192;29;20862;-79
2023/05/05 12:49:50;;;;;;;5.60;1.85;;;;;21.20;101083.00;;;;9866709;29;20255;-78
2023/05/05 12:54:56;;;;;;;6.05;2.08;;;;;21.50;101088.00;;;;9850586;29;20229;-79
2023/05/05 13:00:13;;;;;;;4.43;1.20;;;;;22.30;101061.00;;;;9865391;29;20222;-78
2023/05/05 13:05:14;;;;;;;9.80;1.85;;;;;22.60;101057.00;;;;9847313;29;20651;-78
2023/05/05 13:10:15;;;;;;;3.15;1.70;;;;;22.30;101063.00;;;;9849919;29;20283;-78
2023/05/05 13:15:17;;;;;;;4.70;1.20;;;;;21.80;101055.00;;;;9865447;29;21031;-78
2023/05/05 13:20:19;;;;;;;6.35;2.15;;;;;22.00;101043.00;;;;9866338;29;20239;-78
2023/05/05 13:25:20;;;;;;;4.65;1.80;;;;;22.20;101043.00;;;;9831789;29;20223;-78
2023/05/05 13:30:21;;;;;;;3.83;2.45;;;;;22.80;101052.00;;;;9864147;29;20222;-78
2023/05/05 13:35:23;;;;;;;4.93;2.03;;;;;23.20;101059.00;;;;9864822;29;20233;-78
2023/05/05 13:40:24;;;;;;;7.07;2.20;;;;;23.90;101051.00;;;;9862825;29;21470;-78
2023/05/05 13:45:26;;;;;;;4.60;2.17;;;;;24.30;101061.00;;;;9848499;29;20714;-77
2023/05/05 13:50:28;;;;;;;2.78;1.20;;;;;23.90;101063.00;;;;9848987;29;20226;-78
2023/05/05 13:55:29;;;;;;;6.15;1.90;;;;;23.70;101057.00;;;;9863873;29;20222;-78
2023/05/05 14:00:31;;;;;;;4.57;1.08;;;;;25.20;101052.00;;;;9863980;29;21991;-77
2023/05/05 14:05:33;;;;;;;4.25;1.00;;;;;25.50;101049.00;;;;9861214;29;20219;-78
2023/05/05 14:10:35;;;;;;;2.83;0.70;;;;;26.20;101053.00;;;;9862929;29;20305;-79
2023/05/05 14:15:37;;;;;;;4.40;1.00;;;;;26.00;101059.00;;;;9847190;29;20249;-78
2023/05/05 14:20:38;;;;;;;6.53;1.20;;;;;25.70;101058.00;;;;9858189;29;20295;-78
2023/05/05 14:25:39;;;;;;;3.75;1.08;;;;;27.40;101038.00;;;;9832508;29;20260;-78
2023/05/05 14:30:41;;;;;;;5.22;1.40;;;;;29.20;101042.00;;;;9858362;29;20223;-79
2023/05/05 14:35:42;;;;;;;7.78;1.80;;;;;30.80;101038.00;;;;9854480;29;20237;-79
2023/05/05 14:40:43;;;;;;;3.42;1.08;;;;;31.00;101038.00;;;;9859703;29;21909;-79
2023/05/05 14:45:45;;;;;;;3.95;1.15;;;;;32.40;101036.00;;;;9859714;29;20345;-77
2023/05/05 14:50:47;;;;;;;3.58;1.38;;;;;30.40;101031.00;;;;9863161;29;20250;-81
2023/05/05 14:55:48;;;;;;;2.42;1.15;;;;;29.80;101053.00;;;;9873651;29;20337;-79
2023/05/05 15:00:51;;;;;;;2.55;1.00;;;;;29.50;101034.00;;;;9859743;29;20238;-80
2023/05/05 15:05:52;;;;;;;2.53;1.08;;;;;27.00;101026.00;;;;9858098;29;21111;-80
2023/05/05 15:10:54;;;;;;;3.67;1.10;;;;;24.90;101033.00;;;;9845080;29;20259;-81
2023/05/05 15:15:55;;;;;;;2.60;1.23;;;;;24.10;101023.00;;;;9829700;29;20223;-81
2023/05/05 15:20:56;;;;;;;2.20;0.93;;;;;24.10;101019.00;;;;9844307;29;20238;-81
2023/05/05 15:25:58;;;;;;;3.38;1.05;;;;;25.50;101006.00;;;;9842969;29;20301;-81
2023/05/05 15:31:02;;;;;;;4.88;1.15;;;;;24.00;101012.00;;;;9857828;29;20222;-80
2023/05/05 15:36:04;;;;;;;4.43;1.27;;;;;22.60;101021.00;;;;9843929;29;20227;-82
2023/05/05 17:26:42;;;;;;;1.77;0.80;;;;;21.60;101031.00;;;;9829651;29;20219;-81
2023/05/05 17:31:43;;;;;;;1.75;0.93;;;;;21.20;101023.00;;;;9813883;29;20766;-82
2023/05/05 17:36:44;;;;;;;2.25;1.60;;;;;20.60;101027.00;;;;9813980;29;20255;-82
2023/05/05 17:41:46;;;;;;;1.23;0.82;;;;;20.40;101025.00;;;;9814238;29;20996;-82
2023/05/05 17:46:47;;;;;;;3.90;1.58;;;;;20.30;101025.00;;;;9814861;29;20233;-83
2023/05/05 17:51:49;;;;;;;3.50;1.20;;;;;19.80;101032.00;;;;9799716;29;20212;-82
2023/05/05 17:56:50;;;;;;;3.55;0.93;;;;;19.40;101029.00;;;;9815979;29;20227;-82
2023/05/05 18:01:51;;;;;;;1.60;1.00;;;;;19.00;101030.00;;;;9815701;29;21236;-83
2023/05/05 18:06:56;;;;;;;1.52;1.00;;;;;18.60;101021.00;;;;9813552;29;20234;-82
2023/05/05 18:11:57;;;;;;;2.30;1.00;;;;;18.40;101029.00;;;;9816174;29;20361;-82
2023/05/05 18:17:00;;;;;;;1.50;0.80;;;;;18.30;101041.00;;;;9814912;29;20846;-82
2023/05/05 18:22:01;;;;;;;1.98;0.73;;;;;18.00;101046.00;;;;9829937;29;20243;-82
2023/05/05 18:27:05;;;;;;;3.22;1.17;;;;;17.80;101047.00;;;;9830698;29;20241;-82
2023/05/05 18:32:06;;;;;;;3.38;1.30;;;;;17.70;101052.00;;;;9813713;29;20346;-81
2023/05/05 18:37:08;;;;;;;5.35;1.70;;;;;17.60;101059.00;;;;9799825;29;20234;-82
2023/05/05 18:42:11;;;;;;;5.13;1.60;;;;;17.40;101060.00;;;;9818320;29;20243;-82
2023/05/05 18:47:12;;;;;;;2.83;1.25;;;;;17.10;101050.00;;;;9813078;29;20285;-82
2023/05/05 18:52:14;;;;;;;2.85;1.20;;;;;16.80;101056.00;;;;9784307;29;20258;-81
2023/05/05 18:57:15;;;;;;;3.13;1.77;;;;;16.70;101057.00;;;;9799219;29;20266;-82
2023/05/05 19:02:17;;;;;;;2.20;0.93;;;;;16.40;101058.00;;;;9812527;29;20246;-80
2023/05/05 19:07:18;;;;;;;4.00;1.23;;;;;16.20;101063.00;;;;9813520;29;20222;-82
2023/05/05 19:12:35;;;;;;;4.55;1.85;;;;;16.10;101075.00;;;;9792484;29;20255;-82
2023/05/05 19:17:37;;;;;;;2.58;1.50;;;;;16.00;101083.00;;;;9816103;29;20716;-81
2023/05/05 19:22:38;;;;;;;1.83;1.20;;;;;15.90;101085.00;;;;9805854;29;20247;-80
2023/05/05 19:27:40;;;;;;;4.38;1.35;;;;;15.80;101092.00;;;;9820385;29;20231;-81
2023/05/05 19:32:41;;;;;;;2.85;1.30;;;;;15.60;101091.00;;;;9791838;29;20232;-82
2023/05/05 19:37:42;;;;;;;3.28;1.48;;;;;15.50;101087.00;;;;9838098;29;20233;-82
2023/05/05 19:42:43;;;;;;;0.82;0.82;;;;;15.40;101089.00;;;;9821644;29;20326;-83
2023/05/05 19:47:45;;;;;;;2.90;1.23;;;;;15.30;101102.00;;;;9810088;29;20651;-82
2023/05/05 19:52:47;;;;;;;2.72;1.10;;;;;15.20;101105.00;;;;9816158;29;20227;-78
2023/05/05 19:57:48;;;;;;;2.67;1.30;;;;;15.10;101113.00;;;;9820582;29;20267;-79
2023/05/05 20:02:49;;;;;;;4.40;1.52;;;;;15.00;101120.00;;;;9793248;29;20977;-78
2023/05/05 20:08:03;;;;;;;2.10;1.53;;;;;15.00;101125.00;;;;9804176;29;20234;-81
2023/05/05 20:13:26;;;;;;;1.80;1.33;;;;;15.00;101121.00;;;;9811876;29;20224;-78
2023/05/05 20:18:27;;;;;;;1.67;1.47;;;;;15.00;101117.00;;;;9815561;29;21815;-82
2023/05/05 20:23:29;;;;;;;3.38;1.20;;;;;15.00;101121.00;;;;9794903;29;20242;-81
2023/05/05 20:28:30;;;;;;;3.03;1.73;;;;;14.90;101132.00;;;;9807848;29;20228;-79
2023/05/05 20:33:32;;;;;;;2.00;1.60;;;;;14.90;101127.00;;;;9804457;29;20235;-80
2023/05/05 20:38:33;;;;;;;4.53;1.83;;;;;14.90;101126.00;;;;9812510;29;20963;-82
2023/05/05 20:43:35;;;;;;;3.13;1.80;;;;;14.80;101127.00;;;;9797658;29;20243;-80
2023/05/05 20:48:37;;;;;;;1.80;1.40;;;;;14.80;101118.00;;;;9768144;29;20235;-81
2023/05/05 20:53:43;;;;;;;4.77;1.80;;;;;14.80;101127.00;;;;9813261;29;21931;-80
2023/05/05 20:58:44;;;;;;;3.53;2.17;;;;;14.80;101124.00;;;;9798318;29;20297;-80
2023/05/05 21:03:46;;;;;;;3.80;1.70;;;;;14.70;101104.00;;;;9814832;29;20380;-79
2023/05/05 21:08:47;;;;;;;3.17;1.33;;;;;14.70;101111.00;;;;9810094;29;20220;-82
2023/05/05 21:13:49;;;;;;;4.37;1.80;;;;;14.70;101093.00;;;;9824845;29;20239;-81
2023/05/05 21:19:04;;;;;;;2.30;1.70;;;;;14.60;101096.00;;;;9810365;29;20227;-80
2023/05/05 21:24:38;;;;;;;2.63;2.30;;;;;14.50;101104.00;;;;9804528;29;20243;-78
2023/05/05 21:30:00;;;;;;;6.67;3.03;;;;;14.40;101103.00;;;;9807566;29;20230;-82
2023/05/05 21:35:02;;;;;;;4.27;2.37;;;;;14.30;101105.00;;;;9791438;29;20228;-79
2023/05/05 21:40:12;;;;;;;3.17;2.10;;;;;14.30;101117.00;;;;9821731;29;20227;-79
2023/05/05 21:45:13;;;;;;;4.03;2.20;;;;;14.20;101115.00;;;;9805380;29;20243;-81
2023/05/05 21:50:15;;;;;;;2.83;1.70;;;;;14.20;101101.00;;;;9800233;29;20235;-79
2023/05/05 21:55:16;;;;;;;4.07;1.70;;;;;14.10;101123.00;;;;9789804;29;20246;-79
2023/05/05 22:00:18;;;;;;;3.23;1.87;;;;;14.00;101126.00;;;;9798590;29;21965;-80
2023/05/05 22:05:20;;;;;;;3.13;1.33;;;;;13.80;101130.00;;;;9803272;29;20298;-80
2023/05/05 22:10:23;;;;;;;5.77;1.80;;;;;13.70;101113.00;;;;9780818;29;20231;-77
2023/05/05 22:15:24;;;;;;;2.13;1.40;;;;;13.60;101118.00;;;;9795220;29;20234;-78
2023/05/05 22:20:31;;;;;;;3.50;1.93;;;;;13.40;101117.00;;;;9812817;29;20303;-78
2023/05/05 22:25:32;;;;;;;4.73;2.27;;;;;13.30;101111.00;;;;9785300;29;20231;-79
2023/05/05 22:30:33;;;;;;;3.10;2.20;;;;;13.20;101116.00;;;;9814121;29;20238;-80
2023/05/05 22:35:36;;;;;;;5.07;2.77;;;;;13.10;101110.00;;;;9824394;29;20222;-82
2023/05/05 22:40:38;;;;;;;4.30;2.33;;;;;12.90;101114.00;;;;9832801;29;20262;-82
2023/05/05 22:45:39;;;;;;;1.97;1.73;;;;;12.90;101103.00;;;;9819663;29;20254;-79
2023/05/05 22:50:41;;;;;;;5.30;1.87;;;;;12.80;101101.00;;;;9830540;29;20330;-79
2023/05/05 22:55:43;;;;;;;2.30;1.57;;;;;12.70;101095.00;;;;9805290;29;20230;-79
2023/05/05 23:00:44;;;;;;;3.20;2.03;;;;;12.60;101095.00;;;;9810669;29;20223;-78
2023/05/05 23:05:46;;;;;;;7.87;2.00;;;;;12.50;101103.00;;;;9804832;29;20928;-79
2023/05/05 23:10:47;;;;;;;5.60;2.70;;;;;12.40;101109.00;;;;9792691;29;20227;-77
2023/05/05 23:15:49;;;;;;;6.60;3.53;;;;;12.40;101107.00;;;;9793957;29;20316;-76
2023/05/05 23:20:50;;;;;;;5.70;3.27;;;;;12.30;101104.00;;;;9780636;29;20223;-78
2023/05/05 23:25:52;;;;;;;5.67;3.23;;;;;12.30;101092.00;;;;9787018;29;20323;-78
2023/05/05 23:30:53;;;;;;;5.20;3.50;;;;;12.20;101106.00;;;;9790677;29;20231;-79
2023/05/05 23:35:54;;;;;;;6.77;4.00;;;;;12.10;101109.00;;;;9814683;29;20262;-80
2023/05/05 23:40:56;;;;;;;7.80;3.60;;;;;12.10;101105.00;;;;9810546;29;20246;-78
2023/05/05 23:45:57;;;;;;;5.90;3.17;;;;;12.10;101103.00;;;;9788986;29;20223;-77
2023/05/05 23:50:58;;;;;;;5.40;3.10;;;;;12.00;101104.00;;;;9793948;29;20908;-81
2023/05/05 23:56:00;;;;;;;5.97;3.33;;;;;12.00;101100.00;;;;9791900;29;20852;-80
